sensor_id;sensor_type;location;lat;lon;timestamp;P1;durP1;ratioP1;P2;durP2;ratioP2
4839;SDS011;2434;48.486;7.964;2022-12-10T00:01:43;36.70;;;22.37;;
4839;SDS011;2434;48.486;7.964;2022-12-10T00:04:12;28.83;;;20.70;;
4839;SDS011;2434;48.486;7.964;2022-12-10T00:06:41;27.93;;;20.40;;
4839;SDS011;2434;48.486;7.964;2022-12-10T00:09:12;26.63;;;20.40;;
4839;SDS011;2434;48.486;7.964;2022-12-10T00:11:42;27.10;;;19.37;;
4839;SDS011;2434;48.486;7.964;2022-12-10T00:14:10;30.27;;;20.20;;
4839;SDS011;2434;48.486;7.964;2022-12-10T00:16:40;26.00;;;18.43;;
4839;SDS011;2434;48.486;7.964;2022-12-10T00:19:10;20.73;;;16.47;;
4839;SDS011;2434;48.486;7.964;2022-12-10T00:21:38;26.80;;;17.43;;
4839;SDS011;2434;48.486;7.964;2022-12-10T00:24:07;24.27;;;16.43;;
4839;SDS011;2434;48.486;7.964;2022-12-10T00:26:37;33.67;;;17.50;;
4839;SDS011;2434;48.486;7.964;2022-12-10T00:29:07;25.00;;;18.27;;
4839;SDS011;2434;48.486;7.964;2022-12-10T00:31:38;32.37;;;19.97;;
4839;SDS011;2434;48.486;7.964;2022-12-10T00:34:07;24.30;;;18.17;;
4839;SDS011;2434;48.486;7.964;2022-12-10T00:36:39;28.70;;;19.37;;
4839;SDS011;2434;48.486;7.964;2022-12-10T00:39:09;28.07;;;18.33;;
4839;SDS011;2434;48.486;7.964;2022-12-10T00:41:39;28.07;;;18.57;;
4839;SDS011;2434;48.486;7.964;2022-12-10T00:44:07;26.47;;;18.67;;
4839;SDS011;2434;48.486;7.964;2022-12-10T00:46:37;29.90;;;18.90;;
4839;SDS011;2434;48.486;7.964;2022-12-10T00:49:07;30.10;;;20.53;;
4839;SDS011;2434;48.486;7.964;2022-12-10T00:51:36;29.40;;;18.33;;
4839;SDS011;2434;48.486;7.964;2022-12-10T00:54:06;28.70;;;18.53;;
4839;SDS011;2434;48.486;7.964;2022-12-10T00:56:36;31.80;;;20.10;;
4839;SDS011;2434;48.486;7.964;2022-12-10T00:59:04;33.07;;;21.40;;
4839;SDS011;2434;48.486;7.964;2022-12-10T01:01:33;32.30;;;21.03;;
4839;SDS011;2434;48.486;7.964;2022-12-10T01:04:03;28.23;;;19.43;;
4839;SDS011;2434;48.486;7.964;2022-12-10T01:06:33;29.20;;;18.50;;
4839;SDS011;2434;48.486;7.964;2022-12-10T01:09:05;31.17;;;20.00;;
4839;SDS011;2434;48.486;7.964;2022-12-10T01:11:35;30.20;;;19.40;;
4839;SDS011;2434;48.486;7.964;2022-12-10T01:14:05;23.17;;;16.87;;
4839;SDS011;2434;48.486;7.964;2022-12-10T01:16:34;25.87;;;17.17;;
4839;SDS011;2434;48.486;7.964;2022-12-10T01:19:02;26.73;;;18.13;;
4839;SDS011;2434;48.486;7.964;2022-12-10T01:21:33;31.83;;;18.33;;
4839;SDS011;2434;48.486;7.964;2022-12-10T01:24:04;27.47;;;17.10;;
4839;SDS011;2434;48.486;7.964;2022-12-10T01:26:34;27.80;;;18.13;;
4839;SDS011;2434;48.486;7.964;2022-12-10T01:29:02;26.37;;;17.77;;
4839;SDS011;2434;48.486;7.964;2022-12-10T01:31:32;24.80;;;17.40;;
4839;SDS011;2434;48.486;7.964;2022-12-10T01:34:05;30.10;;;18.67;;
4839;SDS011;2434;48.486;7.964;2022-12-10T01:36:35;25.50;;;17.60;;
4839;SDS011;2434;48.486;7.964;2022-12-10T01:39:09;27.00;;;17.60;;
4839;SDS011;2434;48.486;7.964;2022-12-10T01:41:39;27.33;;;18.23;;
4839;SDS011;2434;48.486;7.964;2022-12-10T01:47:10;25.20;;;17.90;;
4839;SDS011;2434;48.486;7.964;2022-12-10T01:49:39;28.17;;;17.80;;
4839;SDS011;2434;48.486;7.964;2022-12-10T01:52:11;26.87;;;17.83;;
4839;SDS011;2434;48.486;7.964;2022-12-10T01:54:42;25.80;;;17.70;;
4839;SDS011;2434;48.486;7.964;2022-12-10T01:57:12;26.23;;;17.87;;
4839;SDS011;2434;48.486;7.964;2022-12-10T01:59:42;22.00;;;16.40;;
4839;SDS011;2434;48.486;7.964;2022-12-10T02:02:14;27.77;;;17.83;;
4839;SDS011;2434;48.486;7.964;2022-12-10T02:04:52;27.27;;;18.50;;
4839;SDS011;2434;48.486;7.964;2022-12-10T02:07:36;27.50;;;19.40;;
4839;SDS011;2434;48.486;7.964;2022-12-10T02:10:36;28.83;;;18.23;;
4839;SDS011;2434;48.486;7.964;2022-12-10T02:13:17;27.63;;;18.00;;
4839;SDS011;2434;48.486;7.964;2022-12-10T02:15:51;26.90;;;18.17;;
4839;SDS011;2434;48.486;7.964;2022-12-10T02:18:21;25.60;;;17.27;;
4839;SDS011;2434;48.486;7.964;2022-12-10T02:20:54;33.40;;;19.63;;
4839;SDS011;2434;48.486;7.964;2022-12-10T02:23:26;28.17;;;18.30;;
4839;SDS011;2434;48.486;7.964;2022-12-10T02:26:00;32.10;;;17.67;;
4839;SDS011;2434;48.486;7.964;2022-12-10T02:28:34;24.17;;;17.10;;
4839;SDS011;2434;48.486;7.964;2022-12-10T02:31:10;27.33;;;18.37;;
4839;SDS011;2434;48.486;7.964;2022-12-10T02:33:43;28.03;;;17.30;;
4839;SDS011;2434;48.486;7.964;2022-12-10T02:36:14;29.13;;;19.50;;
4839;SDS011;2434;48.486;7.964;2022-12-10T02:38:45;30.63;;;19.23;;
4839;SDS011;2434;48.486;7.964;2022-12-10T02:41:20;31.17;;;19.53;;
4839;SDS011;2434;48.486;7.964;2022-12-10T02:43:53;34.17;;;21.03;;
4839;SDS011;2434;48.486;7.964;2022-12-10T02:46:25;40.53;;;22.73;;
4839;SDS011;2434;48.486;7.964;2022-12-10T02:48:58;33.83;;;21.63;;
4839;SDS011;2434;48.486;7.964;2022-12-10T02:51:28;30.63;;;19.87;;
4839;SDS011;2434;48.486;7.964;2022-12-10T02:53:58;37.67;;;22.80;;
4839;SDS011;2434;48.486;7.964;2022-12-10T02:56:30;34.70;;;22.30;;
4839;SDS011;2434;48.486;7.964;2022-12-10T02:59:06;37.17;;;23.57;;
4839;SDS011;2434;48.486;7.964;2022-12-10T03:01:52;43.20;;;24.57;;
4839;SDS011;2434;48.486;7.964;2022-12-10T03:04:28;42.13;;;24.20;;
4839;SDS011;2434;48.486;7.964;2022-12-10T03:07:02;35.43;;;22.73;;
4839;SDS011;2434;48.486;7.964;2022-12-10T03:09:38;35.30;;;22.70;;
4839;SDS011;2434;48.486;7.964;2022-12-10T03:12:13;34.73;;;21.00;;
4839;SDS011;2434;48.486;7.964;2022-12-10T03:14:46;31.50;;;21.20;;
4839;SDS011;2434;48.486;7.964;2022-12-10T03:17:16;38.07;;;22.10;;
4839;SDS011;2434;48.486;7.964;2022-12-10T03:19:47;38.63;;;21.27;;
4839;SDS011;2434;48.486;7.964;2022-12-10T03:22:18;39.63;;;22.90;;
4839;SDS011;2434;48.486;7.964;2022-12-10T03:24:47;37.63;;;23.07;;
4839;SDS011;2434;48.486;7.964;2022-12-10T03:27:16;39.17;;;22.43;;
4839;SDS011;2434;48.486;7.964;2022-12-10T03:29:47;34.93;;;22.93;;
4839;SDS011;2434;48.486;7.964;2022-12-10T03:32:19;33.73;;;20.30;;
4839;SDS011;2434;48.486;7.964;2022-12-10T03:34:49;34.33;;;21.50;;
4839;SDS011;2434;48.486;7.964;2022-12-10T03:37:19;33.10;;;21.07;;
4839;SDS011;2434;48.486;7.964;2022-12-10T03:39:48;35.50;;;22.03;;
4839;SDS011;2434;48.486;7.964;2022-12-10T03:42:16;30.60;;;20.57;;
4839;SDS011;2434;48.486;7.964;2022-12-10T03:44:45;27.90;;;19.90;;
4839;SDS011;2434;48.486;7.964;2022-12-10T03:47:16;30.07;;;20.33;;
4839;SDS011;2434;48.486;7.964;2022-12-10T03:49:46;25.93;;;17.93;;
4839;SDS011;2434;48.486;7.964;2022-12-10T03:52:15;26.40;;;18.43;;
4839;SDS011;2434;48.486;7.964;2022-12-10T03:54:43;30.97;;;20.13;;
4839;SDS011;2434;48.486;7.964;2022-12-10T03:57:11;31.37;;;19.80;;
4839;SDS011;2434;48.486;7.964;2022-12-10T03:59:39;29.20;;;19.90;;
4839;SDS011;2434;48.486;7.964;2022-12-10T04:02:08;38.80;;;21.13;;
4839;SDS011;2434;48.486;7.964;2022-12-10T04:04:36;32.20;;;19.63;;
4839;SDS011;2434;48.486;7.964;2022-12-10T04:07:06;30.60;;;20.10;;
4839;SDS011;2434;48.486;7.964;2022-12-10T04:09:34;30.00;;;20.20;;
4839;SDS011;2434;48.486;7.964;2022-12-10T04:12:02;30.40;;;19.97;;
4839;SDS011;2434;48.486;7.964;2022-12-10T04:14:31;31.67;;;18.93;;
4839;SDS011;2434;48.486;7.964;2022-12-10T04:17:17;30.80;;;18.93;;
4839;SDS011;2434;48.486;7.964;2022-12-10T04:19:45;35.07;;;22.40;;
4839;SDS011;2434;48.486;7.964;2022-12-10T04:22:14;37.83;;;22.80;;
4839;SDS011;2434;48.486;7.964;2022-12-10T04:25:09;28.73;;;20.03;;
4839;SDS011;2434;48.486;7.964;2022-12-10T04:27:56;33.03;;;21.77;;
4839;SDS011;2434;48.486;7.964;2022-12-10T04:30:24;32.33;;;20.90;;
4839;SDS011;2434;48.486;7.964;2022-12-10T04:32:53;35.30;;;21.20;;
4839;SDS011;2434;48.486;7.964;2022-12-10T04:35:21;29.33;;;20.47;;
4839;SDS011;2434;48.486;7.964;2022-12-10T04:37:51;35.63;;;19.47;;
4839;SDS011;2434;48.486;7.964;2022-12-10T04:40:19;36.53;;;20.53;;
4839;SDS011;2434;48.486;7.964;2022-12-10T04:42:47;33.30;;;21.67;;
4839;SDS011;2434;48.486;7.964;2022-12-10T04:45:15;32.57;;;20.97;;
4839;SDS011;2434;48.486;7.964;2022-12-10T04:47:43;32.30;;;20.13;;
4839;SDS011;2434;48.486;7.964;2022-12-10T04:50:12;33.40;;;20.10;;
4839;SDS011;2434;48.486;7.964;2022-12-10T04:52:40;31.17;;;19.30;;
4839;SDS011;2434;48.486;7.964;2022-12-10T04:55:10;37.10;;;20.93;;
4839;SDS011;2434;48.486;7.964;2022-12-10T04:57:38;34.63;;;21.93;;
4839;SDS011;2434;48.486;7.964;2022-12-10T05:00:07;34.17;;;20.80;;
4839;SDS011;2434;48.486;7.964;2022-12-10T05:02:36;38.60;;;21.70;;
4839;SDS011;2434;48.486;7.964;2022-12-10T05:05:05;33.40;;;21.30;;
4839;SDS011;2434;48.486;7.964;2022-12-10T05:07:33;35.83;;;21.30;;
4839;SDS011;2434;48.486;7.964;2022-12-10T05:10:02;33.90;;;21.40;;
4839;SDS011;2434;48.486;7.964;2022-12-10T05:12:32;33.00;;;21.10;;
4839;SDS011;2434;48.486;7.964;2022-12-10T05:15:00;35.73;;;22.73;;
4839;SDS011;2434;48.486;7.964;2022-12-10T05:17:29;34.60;;;21.70;;
4839;SDS011;2434;48.486;7.964;2022-12-10T05:19:57;37.10;;;22.20;;
4839;SDS011;2434;48.486;7.964;2022-12-10T05:22:25;39.67;;;23.40;;
4839;SDS011;2434;48.486;7.964;2022-12-10T05:25:07;38.73;;;22.07;;
4839;SDS011;2434;48.486;7.964;2022-12-10T05:27:37;39.30;;;22.57;;
4839;SDS011;2434;48.486;7.964;2022-12-10T05:30:05;36.40;;;21.50;;
4839;SDS011;2434;48.486;7.964;2022-12-10T05:32:36;38.50;;;22.20;;
4839;SDS011;2434;48.486;7.964;2022-12-10T05:35:04;36.93;;;21.77;;
4839;SDS011;2434;48.486;7.964;2022-12-10T05:37:33;35.07;;;21.60;;
4839;SDS011;2434;48.486;7.964;2022-12-10T05:40:02;44.10;;;23.23;;
4839;SDS011;2434;48.486;7.964;2022-12-10T05:42:31;34.37;;;21.03;;
4839;SDS011;2434;48.486;7.964;2022-12-10T05:45:00;43.37;;;22.80;;
4839;SDS011;2434;48.486;7.964;2022-12-10T05:47:28;41.77;;;25.80;;
4839;SDS011;2434;48.486;7.964;2022-12-10T05:49:56;36.83;;;22.80;;
4839;SDS011;2434;48.486;7.964;2022-12-10T05:52:24;44.17;;;24.30;;
4839;SDS011;2434;48.486;7.964;2022-12-10T05:54:53;39.63;;;23.60;;
4839;SDS011;2434;48.486;7.964;2022-12-10T05:57:22;50.70;;;26.07;;
4839;SDS011;2434;48.486;7.964;2022-12-10T05:59:50;50.73;;;26.30;;
4839;SDS011;2434;48.486;7.964;2022-12-10T06:02:19;43.13;;;24.80;;
4839;SDS011;2434;48.486;7.964;2022-12-10T06:04:48;40.23;;;23.30;;
4839;SDS011;2434;48.486;7.964;2022-12-10T06:07:16;43.50;;;24.00;;
4839;SDS011;2434;48.486;7.964;2022-12-10T06:09:44;44.80;;;24.03;;
4839;SDS011;2434;48.486;7.964;2022-12-10T06:12:12;43.70;;;24.70;;
4839;SDS011;2434;48.486;7.964;2022-12-10T06:14:40;49.60;;;27.20;;
4839;SDS011;2434;48.486;7.964;2022-12-10T06:17:09;45.37;;;25.57;;
4839;SDS011;2434;48.486;7.964;2022-12-10T06:19:38;47.43;;;27.03;;
4839;SDS011;2434;48.486;7.964;2022-12-10T06:22:07;49.83;;;25.53;;
4839;SDS011;2434;48.486;7.964;2022-12-10T06:24:35;51.53;;;28.40;;
4839;SDS011;2434;48.486;7.964;2022-12-10T06:27:03;52.53;;;26.10;;
4839;SDS011;2434;48.486;7.964;2022-12-10T06:29:31;53.50;;;28.10;;
4839;SDS011;2434;48.486;7.964;2022-12-10T06:32:00;47.70;;;27.07;;
4839;SDS011;2434;48.486;7.964;2022-12-10T06:34:28;50.17;;;27.87;;
4839;SDS011;2434;48.486;7.964;2022-12-10T06:36:57;47.00;;;26.07;;
4839;SDS011;2434;48.486;7.964;2022-12-10T06:39:26;45.77;;;28.60;;
4839;SDS011;2434;48.486;7.964;2022-12-10T06:41:54;55.10;;;29.87;;
4839;SDS011;2434;48.486;7.964;2022-12-10T06:44:24;51.33;;;28.00;;
4839;SDS011;2434;48.486;7.964;2022-12-10T06:46:52;49.60;;;26.90;;
4839;SDS011;2434;48.486;7.964;2022-12-10T06:49:21;53.03;;;30.00;;
4839;SDS011;2434;48.486;7.964;2022-12-10T06:51:49;54.87;;;30.27;;
4839;SDS011;2434;48.486;7.964;2022-12-10T06:54:18;55.97;;;30.43;;
4839;SDS011;2434;48.486;7.964;2022-12-10T06:56:46;60.77;;;31.87;;
4839;SDS011;2434;48.486;7.964;2022-12-10T06:59:15;58.60;;;31.50;;
4839;SDS011;2434;48.486;7.964;2022-12-10T07:01:43;62.07;;;31.67;;
4839;SDS011;2434;48.486;7.964;2022-12-10T07:04:11;62.17;;;33.33;;
4839;SDS011;2434;48.486;7.964;2022-12-10T07:06:39;59.83;;;32.40;;
4839;SDS011;2434;48.486;7.964;2022-12-10T07:09:08;68.90;;;32.10;;
4839;SDS011;2434;48.486;7.964;2022-12-10T07:11:37;66.60;;;29.57;;
4839;SDS011;2434;48.486;7.964;2022-12-10T07:14:06;61.30;;;31.70;;
4839;SDS011;2434;48.486;7.964;2022-12-10T07:16:34;62.50;;;32.63;;
4839;SDS011;2434;48.486;7.964;2022-12-10T07:19:02;56.43;;;30.70;;
4839;SDS011;2434;48.486;7.964;2022-12-10T07:21:31;62.13;;;32.70;;
4839;SDS011;2434;48.486;7.964;2022-12-10T07:24:01;70.83;;;34.73;;
4839;SDS011;2434;48.486;7.964;2022-12-10T07:26:32;67.33;;;34.90;;
4839;SDS011;2434;48.486;7.964;2022-12-10T07:29:04;73.13;;;35.00;;
4839;SDS011;2434;48.486;7.964;2022-12-10T07:31:33;78.83;;;36.37;;
4839;SDS011;2434;48.486;7.964;2022-12-10T07:34:03;73.30;;;34.07;;
4839;SDS011;2434;48.486;7.964;2022-12-10T07:36:31;74.50;;;35.90;;
4839;SDS011;2434;48.486;7.964;2022-12-10T07:38:59;73.50;;;36.77;;
4839;SDS011;2434;48.486;7.964;2022-12-10T07:41:28;72.73;;;35.63;;
4839;SDS011;2434;48.486;7.964;2022-12-10T07:43:57;65.70;;;36.40;;
4839;SDS011;2434;48.486;7.964;2022-12-10T07:46:27;69.90;;;32.93;;
4839;SDS011;2434;48.486;7.964;2022-12-10T07:48:58;105.53;;;41.17;;
4839;SDS011;2434;48.486;7.964;2022-12-10T07:51:28;64.60;;;32.93;;
4839;SDS011;2434;48.486;7.964;2022-12-10T07:53:56;68.63;;;35.60;;
4839;SDS011;2434;48.486;7.964;2022-12-10T07:56:25;76.23;;;38.03;;
4839;SDS011;2434;48.486;7.964;2022-12-10T07:58:53;68.80;;;35.17;;
4839;SDS011;2434;48.486;7.964;2022-12-10T08:01:22;80.97;;;37.50;;
4839;SDS011;2434;48.486;7.964;2022-12-10T08:03:54;75.50;;;33.70;;
4839;SDS011;2434;48.486;7.964;2022-12-10T08:06:24;76.03;;;35.97;;
4839;SDS011;2434;48.486;7.964;2022-12-10T08:08:54;80.80;;;39.30;;
4839;SDS011;2434;48.486;7.964;2022-12-10T08:11:23;67.97;;;34.80;;
4839;SDS011;2434;48.486;7.964;2022-12-10T08:13:53;71.77;;;36.23;;
4839;SDS011;2434;48.486;7.964;2022-12-10T08:16:23;73.20;;;35.20;;
4839;SDS011;2434;48.486;7.964;2022-12-10T08:18:55;81.43;;;35.00;;
4839;SDS011;2434;48.486;7.964;2022-12-10T08:21:25;70.93;;;33.30;;
4839;SDS011;2434;48.486;7.964;2022-12-10T08:23:54;75.83;;;35.27;;
4839;SDS011;2434;48.486;7.964;2022-12-10T08:26:23;67.13;;;32.80;;
4839;SDS011;2434;48.486;7.964;2022-12-10T08:28:53;72.87;;;35.30;;
4839;SDS011;2434;48.486;7.964;2022-12-10T08:31:23;77.47;;;34.60;;
4839;SDS011;2434;48.486;7.964;2022-12-10T08:33:52;72.63;;;35.17;;
4839;SDS011;2434;48.486;7.964;2022-12-10T08:36:22;78.03;;;38.13;;
4839;SDS011;2434;48.486;7.964;2022-12-10T08:38:50;76.33;;;36.23;;
4839;SDS011;2434;48.486;7.964;2022-12-10T08:41:19;74.20;;;36.37;;
4839;SDS011;2434;48.486;7.964;2022-12-10T08:43:50;77.17;;;38.10;;
4839;SDS011;2434;48.486;7.964;2022-12-10T08:46:19;81.10;;;38.83;;
4839;SDS011;2434;48.486;7.964;2022-12-10T08:48:49;75.93;;;36.87;;
4839;SDS011;2434;48.486;7.964;2022-12-10T08:51:18;74.63;;;35.53;;
4839;SDS011;2434;48.486;7.964;2022-12-10T08:53:48;78.80;;;36.47;;
4839;SDS011;2434;48.486;7.964;2022-12-10T08:56:16;70.40;;;35.10;;
4839;SDS011;2434;48.486;7.964;2022-12-10T08:58:44;69.50;;;36.67;;
4839;SDS011;2434;48.486;7.964;2022-12-10T09:01:13;77.70;;;37.53;;
4839;SDS011;2434;48.486;7.964;2022-12-10T09:03:43;72.60;;;34.30;;
4839;SDS011;2434;48.486;7.964;2022-12-10T09:06:12;77.50;;;36.10;;
4839;SDS011;2434;48.486;7.964;2022-12-10T09:08:42;75.90;;;37.77;;
4839;SDS011;2434;48.486;7.964;2022-12-10T09:11:13;73.60;;;35.67;;
4839;SDS011;2434;48.486;7.964;2022-12-10T09:13:43;80.60;;;37.23;;
4839;SDS011;2434;48.486;7.964;2022-12-10T09:16:11;78.33;;;37.17;;
4839;SDS011;2434;48.486;7.964;2022-12-10T09:18:40;76.90;;;36.30;;
4839;SDS011;2434;48.486;7.964;2022-12-10T09:21:09;71.07;;;33.77;;
4839;SDS011;2434;48.486;7.964;2022-12-10T09:23:39;83.10;;;36.77;;
4839;SDS011;2434;48.486;7.964;2022-12-10T09:26:08;66.97;;;34.80;;
4839;SDS011;2434;48.486;7.964;2022-12-10T09:28:40;69.57;;;35.57;;
4839;SDS011;2434;48.486;7.964;2022-12-10T09:31:09;65.83;;;33.73;;
4839;SDS011;2434;48.486;7.964;2022-12-10T09:33:42;65.60;;;34.73;;
4839;SDS011;2434;48.486;7.964;2022-12-10T09:36:12;80.20;;;38.07;;
4839;SDS011;2434;48.486;7.964;2022-12-10T09:38:41;74.67;;;38.00;;
4839;SDS011;2434;48.486;7.964;2022-12-10T09:41:28;72.87;;;34.80;;
4839;SDS011;2434;48.486;7.964;2022-12-10T09:44:09;83.07;;;39.93;;
4839;SDS011;2434;48.486;7.964;2022-12-10T09:46:51;79.17;;;36.83;;
4839;SDS011;2434;48.486;7.964;2022-12-10T09:49:23;79.57;;;37.90;;
4839;SDS011;2434;48.486;7.964;2022-12-10T09:52:02;70.27;;;36.03;;
4839;SDS011;2434;48.486;7.964;2022-12-10T09:54:32;71.10;;;35.43;;
4839;SDS011;2434;48.486;7.964;2022-12-10T09:57:05;93.90;;;38.07;;
4839;SDS011;2434;48.486;7.964;2022-12-10T09:59:40;78.33;;;37.50;;
4839;SDS011;2434;48.486;7.964;2022-12-10T10:02:16;73.83;;;36.47;;
4839;SDS011;2434;48.486;7.964;2022-12-10T10:04:49;71.07;;;34.70;;
4839;SDS011;2434;48.486;7.964;2022-12-10T10:07:19;66.43;;;33.83;;
4839;SDS011;2434;48.486;7.964;2022-12-10T10:09:51;88.97;;;36.70;;
4839;SDS011;2434;48.486;7.964;2022-12-10T10:12:25;76.10;;;36.27;;
4839;SDS011;2434;48.486;7.964;2022-12-10T10:14:56;79.97;;;38.03;;
4839;SDS011;2434;48.486;7.964;2022-12-10T10:17:27;71.50;;;34.80;;
4839;SDS011;2434;48.486;7.964;2022-12-10T10:20:00;78.33;;;37.57;;
4839;SDS011;2434;48.486;7.964;2022-12-10T10:22:29;72.07;;;34.97;;
4839;SDS011;2434;48.486;7.964;2022-12-10T10:24:58;66.77;;;33.33;;
4839;SDS011;2434;48.486;7.964;2022-12-10T10:27:29;77.47;;;35.30;;
4839;SDS011;2434;48.486;7.964;2022-12-10T10:30:02;76.50;;;35.60;;
4839;SDS011;2434;48.486;7.964;2022-12-10T10:32:44;67.63;;;34.50;;
4839;SDS011;2434;48.486;7.964;2022-12-10T10:38:13;72.57;;;36.47;;
4839;SDS011;2434;48.486;7.964;2022-12-10T10:40:46;71.63;;;36.87;;
4839;SDS011;2434;48.486;7.964;2022-12-10T10:43:19;75.70;;;34.67;;
4839;SDS011;2434;48.486;7.964;2022-12-10T10:45:53;71.63;;;36.47;;
4839;SDS011;2434;48.486;7.964;2022-12-10T10:48:25;72.20;;;34.70;;
4839;SDS011;2434;48.486;7.964;2022-12-10T10:50:55;78.17;;;37.07;;
4839;SDS011;2434;48.486;7.964;2022-12-10T10:53:39;69.00;;;34.00;;
4839;SDS011;2434;48.486;7.964;2022-12-10T10:56:10;71.23;;;35.83;;
4839;SDS011;2434;48.486;7.964;2022-12-10T10:58:50;67.50;;;34.83;;
4839;SDS011;2434;48.486;7.964;2022-12-10T11:01:24;67.93;;;33.73;;
4839;SDS011;2434;48.486;7.964;2022-12-10T11:03:55;77.47;;;36.93;;
4839;SDS011;2434;48.486;7.964;2022-12-10T11:06:26;63.90;;;32.90;;
4839;SDS011;2434;48.486;7.964;2022-12-10T11:08:57;65.10;;;32.57;;
4839;SDS011;2434;48.486;7.964;2022-12-10T11:11:31;71.40;;;34.27;;
4839;SDS011;2434;48.486;7.964;2022-12-10T11:14:14;68.30;;;33.50;;
4839;SDS011;2434;48.486;7.964;2022-12-10T11:16:50;61.63;;;32.97;;
4839;SDS011;2434;48.486;7.964;2022-12-10T11:19:26;71.33;;;34.17;;
4839;SDS011;2434;48.486;7.964;2022-12-10T11:21:55;66.83;;;32.50;;
4839;SDS011;2434;48.486;7.964;2022-12-10T11:24:43;67.73;;;34.53;;
4839;SDS011;2434;48.486;7.964;2022-12-10T11:27:14;71.97;;;35.20;;
4839;SDS011;2434;48.486;7.964;2022-12-10T11:29:53;72.40;;;34.07;;
4839;SDS011;2434;48.486;7.964;2022-12-10T11:32:34;74.97;;;36.10;;
4839;SDS011;2434;48.486;7.964;2022-12-10T11:35:16;64.97;;;34.77;;
4839;SDS011;2434;48.486;7.964;2022-12-10T11:37:49;72.20;;;32.93;;
4839;SDS011;2434;48.486;7.964;2022-12-10T11:40:26;56.67;;;30.37;;
4839;SDS011;2434;48.486;7.964;2022-12-10T11:43:04;57.53;;;30.60;;
4839;SDS011;2434;48.486;7.964;2022-12-10T11:45:54;61.50;;;31.40;;
4839;SDS011;2434;48.486;7.964;2022-12-10T11:48:41;54.47;;;29.90;;
4839;SDS011;2434;48.486;7.964;2022-12-10T11:51:22;60.20;;;31.40;;
4839;SDS011;2434;48.486;7.964;2022-12-10T11:54:02;54.50;;;29.80;;
4839;SDS011;2434;48.486;7.964;2022-12-10T11:56:59;54.57;;;29.03;;
4839;SDS011;2434;48.486;7.964;2022-12-10T11:59:34;56.73;;;28.17;;
4839;SDS011;2434;48.486;7.964;2022-12-10T12:05:39;54.27;;;30.73;;
4839;SDS011;2434;48.486;7.964;2022-12-10T12:08:19;54.27;;;29.43;;
4839;SDS011;2434;48.486;7.964;2022-12-10T12:10:57;53.90;;;29.83;;
4839;SDS011;2434;48.486;7.964;2022-12-10T12:13:38;58.30;;;30.00;;
4839;SDS011;2434;48.486;7.964;2022-12-10T12:16:14;50.33;;;27.40;;
4839;SDS011;2434;48.486;7.964;2022-12-10T12:18:46;52.20;;;28.57;;
4839;SDS011;2434;48.486;7.964;2022-12-10T12:21:22;60.00;;;30.40;;
4839;SDS011;2434;48.486;7.964;2022-12-10T12:23:51;61.47;;;29.30;;
4839;SDS011;2434;48.486;7.964;2022-12-10T12:26:30;57.87;;;29.90;;
4839;SDS011;2434;48.486;7.964;2022-12-10T12:29:01;55.57;;;28.90;;
4839;SDS011;2434;48.486;7.964;2022-12-10T12:31:40;53.63;;;29.47;;
4839;SDS011;2434;48.486;7.964;2022-12-10T12:34:13;54.47;;;29.63;;
4839;SDS011;2434;48.486;7.964;2022-12-10T12:36:47;48.33;;;28.60;;
4839;SDS011;2434;48.486;7.964;2022-12-10T12:39:17;48.53;;;26.40;;
4839;SDS011;2434;48.486;7.964;2022-12-10T12:41:54;50.23;;;28.80;;
4839;SDS011;2434;48.486;7.964;2022-12-10T12:44:29;51.80;;;29.30;;
4839;SDS011;2434;48.486;7.964;2022-12-10T12:47:05;49.73;;;28.83;;
4839;SDS011;2434;48.486;7.964;2022-12-10T12:49:43;48.73;;;28.40;;
4839;SDS011;2434;48.486;7.964;2022-12-10T12:52:19;52.23;;;31.30;;
4839;SDS011;2434;48.486;7.964;2022-12-10T12:54:56;47.07;;;29.63;;
4839;SDS011;2434;48.486;7.964;2022-12-10T12:57:28;46.23;;;27.30;;
4839;SDS011;2434;48.486;7.964;2022-12-10T13:00:03;55.27;;;26.87;;
4839;SDS011;2434;48.486;7.964;2022-12-10T13:02:48;52.87;;;28.23;;
4839;SDS011;2434;48.486;7.964;2022-12-10T13:05:25;50.83;;;29.20;;
4839;SDS011;2434;48.486;7.964;2022-12-10T13:08:21;45.30;;;26.13;;
4839;SDS011;2434;48.486;7.964;2022-12-10T13:10:58;44.93;;;25.37;;
4839;SDS011;2434;48.486;7.964;2022-12-10T13:14:02;52.03;;;26.50;;
4839;SDS011;2434;48.486;7.964;2022-12-10T13:16:49;49.90;;;28.50;;
4839;SDS011;2434;48.486;7.964;2022-12-10T13:19:28;48.63;;;25.53;;
4839;SDS011;2434;48.486;7.964;2022-12-10T13:21:58;41.10;;;24.13;;
4839;SDS011;2434;48.486;7.964;2022-12-10T13:24:46;47.00;;;25.87;;
4839;SDS011;2434;48.486;7.964;2022-12-10T13:27:40;46.97;;;26.30;;
4839;SDS011;2434;48.486;7.964;2022-12-10T13:33:17;43.80;;;25.40;;
4839;SDS011;2434;48.486;7.964;2022-12-10T13:35:55;47.10;;;28.00;;
4839;SDS011;2434;48.486;7.964;2022-12-10T13:38:38;50.07;;;25.97;;
4839;SDS011;2434;48.486;7.964;2022-12-10T13:41:10;42.60;;;24.27;;
4839;SDS011;2434;48.486;7.964;2022-12-10T13:43:57;46.23;;;27.00;;
4839;SDS011;2434;48.486;7.964;2022-12-10T13:46:51;47.37;;;24.80;;
4839;SDS011;2434;48.486;7.964;2022-12-10T13:49:25;50.80;;;26.63;;
4839;SDS011;2434;48.486;7.964;2022-12-10T13:51:57;44.27;;;25.50;;
4839;SDS011;2434;48.486;7.964;2022-12-10T13:54:35;47.73;;;25.63;;
4839;SDS011;2434;48.486;7.964;2022-12-10T13:57:33;43.77;;;24.33;;
4839;SDS011;2434;48.486;7.964;2022-12-10T14:00:21;41.93;;;24.50;;
4839;SDS011;2434;48.486;7.964;2022-12-10T14:02:58;44.60;;;25.47;;
4839;SDS011;2434;48.486;7.964;2022-12-10T14:05:39;47.47;;;24.00;;
4839;SDS011;2434;48.486;7.964;2022-12-10T14:08:18;37.20;;;22.80;;
4839;SDS011;2434;48.486;7.964;2022-12-10T14:10:50;38.40;;;22.50;;
4839;SDS011;2434;48.486;7.964;2022-12-10T14:13:21;32.23;;;20.50;;
4839;SDS011;2434;48.486;7.964;2022-12-10T14:15:53;29.73;;;19.67;;
4839;SDS011;2434;48.486;7.964;2022-12-10T14:18:24;37.30;;;20.77;;
4839;SDS011;2434;48.486;7.964;2022-12-10T14:20:56;33.60;;;20.10;;
4839;SDS011;2434;48.486;7.964;2022-12-10T14:23:30;33.60;;;20.73;;
4839;SDS011;2434;48.486;7.964;2022-12-10T14:26:04;37.80;;;22.20;;
4839;SDS011;2434;48.486;7.964;2022-12-10T14:28:39;35.70;;;20.73;;
4839;SDS011;2434;48.486;7.964;2022-12-10T14:31:11;34.17;;;20.17;;
4839;SDS011;2434;48.486;7.964;2022-12-10T14:33:44;33.30;;;20.10;;
4839;SDS011;2434;48.486;7.964;2022-12-10T14:36:19;42.60;;;24.77;;
4839;SDS011;2434;48.486;7.964;2022-12-10T14:38:52;37.17;;;22.00;;
4839;SDS011;2434;48.486;7.964;2022-12-10T14:41:22;43.53;;;22.20;;
4839;SDS011;2434;48.486;7.964;2022-12-10T14:43:52;44.60;;;23.77;;
4839;SDS011;2434;48.486;7.964;2022-12-10T14:46:23;38.23;;;23.37;;
4839;SDS011;2434;48.486;7.964;2022-12-10T14:48:54;42.10;;;22.87;;
4839;SDS011;2434;48.486;7.964;2022-12-10T14:51:23;43.10;;;23.23;;
4839;SDS011;2434;48.486;7.964;2022-12-10T14:53:54;43.57;;;23.30;;
4839;SDS011;2434;48.486;7.964;2022-12-10T14:56:24;39.60;;;23.53;;
4839;SDS011;2434;48.486;7.964;2022-12-10T14:58:57;38.97;;;23.53;;
4839;SDS011;2434;48.486;7.964;2022-12-10T15:01:33;39.53;;;22.50;;
4839;SDS011;2434;48.486;7.964;2022-12-10T15:04:03;39.57;;;22.00;;
4839;SDS011;2434;48.486;7.964;2022-12-10T15:06:34;36.23;;;21.80;;
4839;SDS011;2434;48.486;7.964;2022-12-10T15:09:04;31.10;;;19.77;;
4839;SDS011;2434;48.486;7.964;2022-12-10T15:11:39;37.07;;;22.00;;
4839;SDS011;2434;48.486;7.964;2022-12-10T15:14:14;35.13;;;22.70;;
4839;SDS011;2434;48.486;7.964;2022-12-10T15:16:45;38.77;;;23.53;;
4839;SDS011;2434;48.486;7.964;2022-12-10T15:19:16;40.53;;;23.83;;
4839;SDS011;2434;48.486;7.964;2022-12-10T15:21:47;46.93;;;27.37;;
4839;SDS011;2434;48.486;7.964;2022-12-10T15:24:18;49.57;;;27.27;;
4839;SDS011;2434;48.486;7.964;2022-12-10T15:26:48;35.83;;;24.43;;
4839;SDS011;2434;48.486;7.964;2022-12-10T15:29:33;34.70;;;20.40;;
4839;SDS011;2434;48.486;7.964;2022-12-10T15:32:08;32.20;;;20.70;;